sensor_id;sensor_type;location;lat;lon;timestamp;P1;durP1;ratioP1;P2;durP2;ratioP2
55989;SDS011;41875;55.806;38.082;2022-09-09T10:11:28;1.83;;;0.70;;
55989;SDS011;41875;55.806;38.082;2022-09-09T10:14:17;1.52;;;0.75;;
55989;SDS011;41875;55.806;38.082;2022-09-09T10:17:05;0.90;;;0.60;;
55989;SDS011;41875;55.806;38.082;2022-09-09T10:19:46;1.08;;;0.60;;
55989;SDS011;41875;55.806;38.082;2022-09-09T10:22:30;2.65;;;0.77;;
55989;SDS011;41875;55.806;38.082;2022-09-09T10:25:14;2.83;;;1.02;;
55989;SDS011;41875;55.806;38.082;2022-09-09T10:28:01;3.65;;;0.93;;
55989;SDS011;41875;55.806;38.082;2022-09-09T10:30:46;2.33;;;0.90;;
55989;SDS011;41875;55.806;38.082;2022-09-09T10:33:26;1.85;;;0.90;;
55989;SDS011;41875;55.806;38.082;2022-09-09T10:36:07;2.17;;;0.82;;
55989;SDS011;41875;55.806;38.082;2022-09-09T10:38:41;1.40;;;0.50;;
55989;SDS011;41875;55.806;38.082;2022-09-09T10:41:15;1.23;;;0.68;;
55989;SDS011;41875;55.806;38.082;2022-09-09T10:46:56;1.17;;;0.70;;
55989;SDS011;41875;55.806;38.082;2022-09-09T10:49:43;2.15;;;0.70;;
55989;SDS011;41875;55.806;38.082;2022-09-09T10:52:30;2.92;;;0.90;;
55989;SDS011;41875;55.806;38.082;2022-09-09T10:55:09;1.53;;;0.80;;
55989;SDS011;41875;55.806;38.082;2022-09-09T10:57:42;0.90;;;0.57;;
55989;SDS011;41875;55.806;38.082;2022-09-09T11:00:16;1.40;;;0.70;;
55989;SDS011;41875;55.806;38.082;2022-09-09T11:02:48;1.85;;;0.60;;
55989;SDS011;41875;55.806;38.082;2022-09-09T11:05:22;1.45;;;0.80;;
55989;SDS011;41875;55.806;38.082;2022-09-09T11:07:55;1.00;;;0.52;;
55989;SDS011;41875;55.806;38.082;2022-09-09T11:10:29;1.50;;;0.70;;
55989;SDS011;41875;55.806;38.082;2022-09-09T11:13:09;2.58;;;0.90;;
55989;SDS011;41875;55.806;38.082;2022-09-09T11:15:46;1.83;;;0.80;;
55989;SDS011;41875;55.806;38.082;2022-09-09T11:18:19;1.63;;;0.80;;
55989;SDS011;41875;55.806;38.082;2022-09-09T11:20:51;1.95;;;0.75;;
55989;SDS011;41875;55.806;38.082;2022-09-09T11:23:26;0.70;;;0.55;;
55989;SDS011;41875;55.806;38.082;2022-09-09T11:25:59;2.00;;;0.85;;
55989;SDS011;41875;55.806;38.082;2022-09-09T11:28:37;3.58;;;0.82;;
55989;SDS011;41875;55.806;38.082;2022-09-09T11:31:20;0.57;;;0.50;;
55989;SDS011;41875;55.806;38.082;2022-09-09T11:34:13;0.70;;;0.45;;
55989;SDS011;41875;55.806;38.082;2022-09-09T11:42:45;1.13;;;0.65;;
55989;SDS011;41875;55.806;38.082;2022-09-09T11:45:20;1.65;;;0.50;;
55989;SDS011;41875;55.806;38.082;2022-09-09T11:47:54;1.52;;;0.50;;
55989;SDS011;41875;55.806;38.082;2022-09-09T11:50:28;0.75;;;0.52;;
55989;SDS011;41875;55.806;38.082;2022-09-09T11:53:05;0.82;;;0.50;;
55989;SDS011;41875;55.806;38.082;2022-09-09T11:56:02;1.90;;;0.80;;
55989;SDS011;41875;55.806;38.082;2022-09-09T11:58:39;1.77;;;0.70;;
55989;SDS011;41875;55.806;38.082;2022-09-09T12:01:26;1.88;;;0.88;;
55989;SDS011;41875;55.806;38.082;2022-09-09T12:07:24;1.63;;;0.65;;
55989;SDS011;41875;55.806;38.082;2022-09-09T12:10:02;2.90;;;0.60;;
55989;SDS011;41875;55.806;38.082;2022-09-09T12:12:34;0.38;;;0.38;;
55989;SDS011;41875;55.806;38.082;2022-09-09T12:15:23;0.95;;;0.63;;
55989;SDS011;41875;55.806;38.082;2022-09-09T12:17:56;1.05;;;0.60;;
55989;SDS011;41875;55.806;38.082;2022-09-09T12:20:33;3.42;;;0.70;;
55989;SDS011;41875;55.806;38.082;2022-09-09T12:23:13;1.08;;;0.55;;
55989;SDS011;41875;55.806;38.082;2022-09-09T12:25:51;0.50;;;0.47;;
55989;SDS011;41875;55.806;38.082;2022-09-09T12:28:27;1.20;;;0.70;;
55989;SDS011;41875;55.806;38.082;2022-09-09T12:31:17;1.70;;;0.60;;
55989;SDS011;41875;55.806;38.082;2022-09-09T12:33:51;2.08;;;0.52;;
55989;SDS011;41875;55.806;38.082;2022-09-09T12:36:20;0.63;;;0.45;;
55989;SDS011;41875;55.806;38.082;2022-09-09T12:39:10;3.15;;;1.23;;
55989;SDS011;41875;55.806;38.082;2022-09-09T12:41:52;3.72;;;1.30;;
55989;SDS011;41875;55.806;38.082;2022-09-09T12:44:25;2.63;;;1.00;;
55989;SDS011;41875;55.806;38.082;2022-09-09T12:46:55;1.08;;;0.80;;
55989;SDS011;41875;55.806;38.082;2022-09-09T12:49:32;3.03;;;0.90;;
55989;SDS011;41875;55.806;38.082;2022-09-09T12:52:06;2.80;;;1.02;;
55989;SDS011;41875;55.806;38.082;2022-09-09T12:54:42;1.92;;;0.70;;
55989;SDS011;41875;55.806;38.082;2022-09-09T12:57:14;3.97;;;1.10;;
55989;SDS011;41875;55.806;38.082;2022-09-09T12:59:43;1.92;;;0.70;;
55989;SDS011;41875;55.806;38.082;2022-09-09T13:02:20;0.40;;;0.40;;
55989;SDS011;41875;55.806;38.082;2022-09-09T13:04:50;2.25;;;0.57;;
55989;SDS011;41875;55.806;38.082;2022-09-09T13:07:21;1.73;;;0.68;;
55989;SDS011;41875;55.806;38.082;2022-09-09T13:09:53;0.55;;;0.45;;
55989;SDS011;41875;55.806;38.082;2022-09-09T13:12:22;1.75;;;0.73;;
55989;SDS011;41875;55.806;38.082;2022-09-09T13:14:52;0.90;;;0.60;;
55989;SDS011;41875;55.806;38.082;2022-09-09T13:17:23;1.98;;;0.70;;
55989;SDS011;41875;55.806;38.082;2022-09-09T13:19:55;1.15;;;0.70;;
55989;SDS011;41875;55.806;38.082;2022-09-09T13:22:29;2.65;;;1.25;;
55989;SDS011;41875;55.806;38.082;2022-09-09T13:25:05;1.48;;;0.63;;
55989;SDS011;41875;55.806;38.082;2022-09-09T13:27:51;0.60;;;0.50;;
55989;SDS011;41875;55.806;38.082;2022-09-09T13:30:22;2.30;;;0.75;;
55989;SDS011;41875;55.806;38.082;2022-09-09T13:32:59;1.20;;;0.57;;
55989;SDS011;41875;55.806;38.082;2022-09-09T13:35:29;3.40;;;0.57;;
55989;SDS011;41875;55.806;38.082;2022-09-09T13:37:59;2.15;;;0.95;;
55989;SDS011;41875;55.806;38.082;2022-09-09T13:40:37;2.00;;;0.85;;
55989;SDS011;41875;55.806;38.082;2022-09-09T13:43:10;1.73;;;0.85;;
55989;SDS011;41875;55.806;38.082;2022-09-09T13:45:52;1.88;;;0.77;;
55989;SDS011;41875;55.806;38.082;2022-09-09T13:48:26;3.35;;;0.80;;
55989;SDS011;41875;55.806;38.082;2022-09-09T13:50:59;1.15;;;0.60;;
55989;SDS011;41875;55.806;38.082;2022-09-09T13:53:31;0.95;;;0.65;;
55989;SDS011;41875;55.806;38.082;2022-09-09T13:56:01;1.55;;;0.80;;
55989;SDS011;41875;55.806;38.082;2022-09-09T13:58:30;3.90;;;0.70;;
55989;SDS011;41875;55.806;38.082;2022-09-09T14:00:58;3.55;;;1.00;;
55989;SDS011;41875;55.806;38.082;2022-09-09T14:03:27;1.17;;;0.70;;
55989;SDS011;41875;55.806;38.082;2022-09-09T14:05:55;2.03;;;0.70;;
55989;SDS011;41875;55.806;38.082;2022-09-09T14:08:25;1.02;;;0.70;;
55989;SDS011;41875;55.806;38.082;2022-09-09T14:10:55;2.38;;;0.77;;
55989;SDS011;41875;55.806;38.082;2022-09-09T14:13:26;1.00;;;0.50;;
55989;SDS011;41875;55.806;38.082;2022-09-09T14:15:54;2.72;;;1.10;;
55989;SDS011;41875;55.806;38.082;2022-09-09T14:18:23;1.58;;;0.70;;
55989;SDS011;41875;55.806;38.082;2022-09-09T14:20:52;3.72;;;1.02;;
55989;SDS011;41875;55.806;38.082;2022-09-09T14:23:20;3.20;;;0.95;;
55989;SDS011;41875;55.806;38.082;2022-09-09T14:25:51;1.67;;;0.70;;
55989;SDS011;41875;55.806;38.082;2022-09-09T14:28:19;1.73;;;0.65;;
55989;SDS011;41875;55.806;38.082;2022-09-09T14:31:09;1.60;;;0.85;;
55989;SDS011;41875;55.806;38.082;2022-09-09T14:33:40;1.38;;;0.63;;
55989;SDS011;41875;55.806;38.082;2022-09-09T14:36:08;1.30;;;0.90;;
55989;SDS011;41875;55.806;38.082;2022-09-09T14:43:34;2.75;;;1.15;;
55989;SDS011;41875;55.806;38.082;2022-09-09T14:46:06;5.45;;;1.00;;
55989;SDS011;41875;55.806;38.082;2022-09-09T14:48:37;2.05;;;0.98;;
55989;SDS011;41875;55.806;38.082;2022-09-09T14:51:07;1.25;;;0.75;;
55989;SDS011;41875;55.806;38.082;2022-09-09T14:53:37;3.45;;;1.25;;
55989;SDS011;41875;55.806;38.082;2022-09-09T14:56:06;2.15;;;1.00;;
55989;SDS011;41875;55.806;38.082;2022-09-09T14:58:36;2.10;;;0.80;;
55989;SDS011;41875;55.806;38.082;2022-09-09T15:01:06;2.35;;;0.80;;
55989;SDS011;41875;55.806;38.082;2022-09-09T15:03:38;2.15;;;0.80;;
55989;SDS011;41875;55.806;38.082;2022-09-09T15:06:08;2.03;;;0.85;;
55989;SDS011;41875;55.806;38.082;2022-09-09T15:08:39;2.97;;;0.90;;
55989;SDS011;41875;55.806;38.082;2022-09-09T15:11:10;2.08;;;1.02;;
55989;SDS011;41875;55.806;38.082;2022-09-09T15:13:40;1.67;;;0.73;;
55989;SDS011;41875;55.806;38.082;2022-09-09T15:16:10;3.47;;;1.00;;
55989;SDS011;41875;55.806;38.082;2022-09-09T15:18:42;3.95;;;1.15;;
55989;SDS011;41875;55.806;38.082;2022-09-09T15:21:12;9.50;;;3.50;;
55989;SDS011;41875;55.806;38.082;2022-09-09T15:23:42;6.30;;;2.50;;
55989;SDS011;41875;55.806;38.082;2022-09-09T15:26:11;5.63;;;1.90;;
55989;SDS011;41875;55.806;38.082;2022-09-09T15:28:41;3.88;;;1.70;;
55989;SDS011;41875;55.806;38.082;2022-09-09T15:31:11;4.82;;;1.38;;
55989;SDS011;41875;55.806;38.082;2022-09-09T15:33:48;2.13;;;1.30;;
55989;SDS011;41875;55.806;38.082;2022-09-09T15:36:18;3.35;;;1.27;;
55989;SDS011;41875;55.806;38.082;2022-09-09T15:38:48;2.75;;;1.23;;
55989;SDS011;41875;55.806;38.082;2022-09-09T15:43:47;1.48;;;0.95;;
55989;SDS011;41875;55.806;38.082;2022-09-09T15:46:27;3.75;;;1.17;;
55989;SDS011;41875;55.806;38.082;2022-09-09T15:49:04;2.80;;;1.30;;
55989;SDS011;41875;55.806;38.082;2022-09-09T15:51:33;3.80;;;1.35;;
55989;SDS011;41875;55.806;38.082;2022-09-09T15:54:09;4.78;;;1.60;;
55989;SDS011;41875;55.806;38.082;2022-09-09T15:56:39;3.80;;;1.50;;
55989;SDS011;41875;55.806;38.082;2022-09-09T15:59:09;3.40;;;1.58;;
55989;SDS011;41875;55.806;38.082;2022-09-09T16:01:38;6.30;;;2.40;;
55989;SDS011;41875;55.806;38.082;2022-09-09T16:04:10;5.18;;;2.10;;
55989;SDS011;41875;55.806;38.082;2022-09-09T16:06:40;7.65;;;2.47;;
55989;SDS011;41875;55.806;38.082;2022-09-09T16:09:09;6.97;;;2.33;;
55989;SDS011;41875;55.806;38.082;2022-09-09T16:11:38;5.00;;;1.90;;
55989;SDS011;41875;55.806;38.082;2022-09-09T16:14:07;5.97;;;2.35;;
55989;SDS011;41875;55.806;38.082;2022-09-09T16:16:36;5.93;;;2.13;;
55989;SDS011;41875;55.806;38.082;2022-09-09T16:21:36;5.60;;;2.25;;
55989;SDS011;41875;55.806;38.082;2022-09-09T16:24:07;6.60;;;2.65;;
55989;SDS011;41875;55.806;38.082;2022-09-09T16:26:37;6.85;;;2.63;;
55989;SDS011;41875;55.806;38.082;2022-09-09T16:29:07;8.40;;;2.95;;
55989;SDS011;41875;55.806;38.082;2022-09-09T16:31:36;7.85;;;2.90;;
55989;SDS011;41875;55.806;38.082;2022-09-09T16:34:07;7.82;;;3.08;;
55989;SDS011;41875;55.806;38.082;2022-09-09T16:36:37;6.18;;;2.15;;
55989;SDS011;41875;55.806;38.082;2022-09-09T16:39:07;6.10;;;2.17;;
55989;SDS011;41875;55.806;38.082;2022-09-09T16:41:38;8.07;;;2.70;;
55989;SDS011;41875;55.806;38.082;2022-09-09T16:44:08;6.57;;;2.67;;
55989;SDS011;41875;55.806;38.082;2022-09-09T16:46:38;7.65;;;3.13;;
55989;SDS011;41875;55.806;38.082;2022-09-09T16:49:09;6.22;;;2.08;;
55989;SDS011;41875;55.806;38.082;2022-09-09T16:51:41;5.78;;;2.47;;
55989;SDS011;41875;55.806;38.082;2022-09-09T16:54:11;5.25;;;2.33;;
55989;SDS011;41875;55.806;38.082;2022-09-09T16:56:42;6.80;;;2.38;;
55989;SDS011;41875;55.806;38.082;2022-09-09T16:59:12;7.35;;;2.60;;
55989;SDS011;41875;55.806;38.082;2022-09-09T17:01:42;9.65;;;3.03;;
55989;SDS011;41875;55.806;38.082;2022-09-09T17:04:13;7.60;;;2.45;;
55989;SDS011;41875;55.806;38.082;2022-09-09T17:06:49;8.55;;;3.15;;
55989;SDS011;41875;55.806;38.082;2022-09-09T17:09:19;12.57;;;4.10;;
55989;SDS011;41875;55.806;38.082;2022-09-09T17:11:49;14.68;;;5.75;;
55989;SDS011;41875;55.806;38.082;2022-09-09T17:14:19;13.13;;;6.03;;
55989;SDS011;41875;55.806;38.082;2022-09-09T17:16:50;18.70;;;8.52;;
55989;SDS011;41875;55.806;38.082;2022-09-09T17:19:19;13.15;;;5.82;;
55989;SDS011;41875;55.806;38.082;2022-09-09T17:21:49;11.82;;;6.18;;
55989;SDS011;41875;55.806;38.082;2022-09-09T17:24:38;14.68;;;4.88;;
55989;SDS011;41875;55.806;38.082;2022-09-09T17:27:07;15.25;;;5.93;;
55989;SDS011;41875;55.806;38.082;2022-09-09T17:32:05;7.97;;;3.05;;
55989;SDS011;41875;55.806;38.082;2022-09-09T17:34:34;9.48;;;3.17;;
55989;SDS011;41875;55.806;38.082;2022-09-09T17:37:06;9.13;;;3.22;;
55989;SDS011;41875;55.806;38.082;2022-09-09T17:39:34;12.48;;;3.78;;
55989;SDS011;41875;55.806;38.082;2022-09-09T17:42:04;12.63;;;4.40;;
55989;SDS011;41875;55.806;38.082;2022-09-09T17:44:34;10.40;;;4.45;;
55989;SDS011;41875;55.806;38.082;2022-09-09T17:47:02;8.73;;;2.90;;
55989;SDS011;41875;55.806;38.082;2022-09-09T17:49:33;11.70;;;4.03;;
55989;SDS011;41875;55.806;38.082;2022-09-09T17:52:01;8.82;;;2.80;;
55989;SDS011;41875;55.806;38.082;2022-09-09T17:54:32;12.50;;;3.65;;
55989;SDS011;41875;55.806;38.082;2022-09-09T17:57:01;15.48;;;4.40;;
55989;SDS011;41875;55.806;38.082;2022-09-09T18:01:58;15.45;;;4.43;;
55989;SDS011;41875;55.806;38.082;2022-09-09T18:04:27;11.77;;;4.43;;
55989;SDS011;41875;55.806;38.082;2022-09-09T18:06:57;11.75;;;4.90;;
55989;SDS011;41875;55.806;38.082;2022-09-09T18:09:26;12.35;;;2.92;;
55989;SDS011;41875;55.806;38.082;2022-09-09T18:11:57;9.48;;;3.67;;
55989;SDS011;41875;55.806;38.082;2022-09-09T18:14:28;10.57;;;4.60;;
55989;SDS011;41875;55.806;38.082;2022-09-09T18:16:59;9.07;;;3.63;;
55989;SDS011;41875;55.806;38.082;2022-09-09T18:19:30;9.70;;;3.58;;
55989;SDS011;41875;55.806;38.082;2022-09-09T18:22:02;8.10;;;3.17;;
55989;SDS011;41875;55.806;38.082;2022-09-09T18:24:33;11.18;;;3.67;;
55989;SDS011;41875;55.806;38.082;2022-09-09T18:27:03;6.32;;;2.00;;
55989;SDS011;41875;55.806;38.082;2022-09-09T18:29:33;4.63;;;2.20;;
55989;SDS011;41875;55.806;38.082;2022-09-09T18:32:02;6.22;;;2.35;;
55989;SDS011;41875;55.806;38.082;2022-09-09T18:34:31;4.07;;;2.10;;
55989;SDS011;41875;55.806;38.082;2022-09-09T18:37:01;5.95;;;2.10;;
55989;SDS011;41875;55.806;38.082;2022-09-09T18:39:30;6.28;;;2.75;;
55989;SDS011;41875;55.806;38.082;2022-09-09T18:44:30;6.05;;;2.22;;
55989;SDS011;41875;55.806;38.082;2022-09-09T18:47:01;7.35;;;2.40;;
55989;SDS011;41875;55.806;38.082;2022-09-09T18:49:30;6.40;;;2.30;;
55989;SDS011;41875;55.806;38.082;2022-09-09T18:52:00;4.57;;;2.03;;
55989;SDS011;41875;55.806;38.082;2022-09-09T18:54:30;4.63;;;2.20;;
55989;SDS011;41875;55.806;38.082;2022-09-09T18:57:00;4.30;;;1.95;;
55989;SDS011;41875;55.806;38.082;2022-09-09T18:59:30;5.93;;;2.15;;
55989;SDS011;41875;55.806;38.082;2022-09-09T19:01:59;6.43;;;2.08;;
55989;SDS011;41875;55.806;38.082;2022-09-09T19:04:29;5.45;;;2.03;;
55989;SDS011;41875;55.806;38.082;2022-09-09T19:06:59;5.75;;;2.28;;
55989;SDS011;41875;55.806;38.082;2022-09-09T19:09:29;4.55;;;2.45;;
55989;SDS011;41875;55.806;38.082;2022-09-09T19:12:00;5.20;;;2.50;;
55989;SDS011;41875;55.806;38.082;2022-09-09T19:14:29;4.53;;;2.05;;
55989;SDS011;41875;55.806;38.082;2022-09-09T19:16:59;3.92;;;1.60;;
55989;SDS011;41875;55.806;38.082;2022-09-09T19:19:28;2.20;;;1.33;;
55989;SDS011;41875;55.806;38.082;2022-09-09T19:21:58;3.90;;;1.67;;
55989;SDS011;41875;55.806;38.082;2022-09-09T19:24:29;3.70;;;1.60;;
55989;SDS011;41875;55.806;38.082;2022-09-09T19:27:01;5.82;;;2.40;;
55989;SDS011;41875;55.806;38.082;2022-09-09T19:29:34;5.70;;;2.30;;
55989;SDS011;41875;55.806;38.082;2022-09-09T19:32:05;6.93;;;2.70;;
55989;SDS011;41875;55.806;38.082;2022-09-09T19:34:54;4.95;;;2.17;;
55989;SDS011;41875;55.806;38.082;2022-09-09T19:37:22;6.78;;;2.72;;
55989;SDS011;41875;55.806;38.082;2022-09-09T19:39:51;5.03;;;2.33;;
55989;SDS011;41875;55.806;38.082;2022-09-09T19:42:20;4.78;;;2.33;;
55989;SDS011;41875;55.806;38.082;2022-09-09T19:44:50;6.72;;;2.40;;
55989;SDS011;41875;55.806;38.082;2022-09-09T19:47:18;4.40;;;2.00;;
55989;SDS011;41875;55.806;38.082;2022-09-09T19:49:49;7.13;;;2.28;;
55989;SDS011;41875;55.806;38.082;2022-09-09T19:52:18;4.43;;;1.58;;
55989;SDS011;41875;55.806;38.082;2022-09-09T19:54:46;3.58;;;1.40;;
55989;SDS011;41875;55.806;38.082;2022-09-09T19:57:15;2.63;;;1.55;;
55989;SDS011;41875;55.806;38.082;2022-09-09T19:59:45;4.82;;;2.20;;
55989;SDS011;41875;55.806;38.082;2022-09-09T20:02:15;7.35;;;2.35;;
55989;SDS011;41875;55.806;38.082;2022-09-09T20:04:43;4.32;;;2.05;;
55989;SDS011;41875;55.806;38.082;2022-09-09T20:07:12;7.05;;;2.70;;
55989;SDS011;41875;55.806;38.082;2022-09-09T20:09:40;7.85;;;2.95;;
55989;SDS011;41875;55.806;38.082;2022-09-09T20:12:09;11.45;;;3.80;;
55989;SDS011;41875;55.806;38.082;2022-09-09T20:14:37;8.43;;;3.72;;
55989;SDS011;41875;55.806;38.082;2022-09-09T20:17:06;9.52;;;3.22;;
55989;SDS011;41875;55.806;38.082;2022-09-09T20:19:37;8.10;;;3.45;;
55989;SDS011;41875;55.806;38.082;2022-09-09T20:22:06;6.35;;;2.70;;
55989;SDS011;41875;55.806;38.082;2022-09-09T20:24:35;8.23;;;3.45;;
55989;SDS011;41875;55.806;38.082;2022-09-09T20:27:04;9.98;;;3.30;;
55989;SDS011;41875;55.806;38.082;2022-09-09T20:29:34;7.70;;;3.58;;
55989;SDS011;41875;55.806;38.082;2022-09-09T20:32:03;8.77;;;3.40;;
55989;SDS011;41875;55.806;38.082;2022-09-09T20:34:32;8.48;;;3.70;;
55989;SDS011;41875;55.806;38.082;2022-09-09T20:37:02;6.32;;;3.28;;
55989;SDS011;41875;55.806;38.082;2022-09-09T20:39:31;6.65;;;3.45;;
55989;SDS011;41875;55.806;38.082;2022-09-09T20:42:01;6.28;;;3.03;;
55989;SDS011;41875;55.806;38.082;2022-09-09T20:46:58;8.48;;;3.28;;
55989;SDS011;41875;55.806;38.082;2022-09-09T20:49:32;7.90;;;3.10;;
55989;SDS011;41875;55.806;38.082;2022-09-09T20:52:03;6.47;;;2.88;;
55989;SDS011;41875;55.806;38.082;2022-09-09T20:54:33;8.75;;;3.10;;
55989;SDS011;41875;55.806;38.082;2022-09-09T20:57:04;5.90;;;2.67;;
55989;SDS011;41875;55.806;38.082;2022-09-09T20:59:33;7.53;;;3.20;;
55989;SDS011;41875;55.806;38.082;2022-09-09T21:02:08;6.18;;;2.97;;
55989;SDS011;41875;55.806;38.082;2022-09-09T21:04:37;8.27;;;2.88;;
55989;SDS011;41875;55.806;38.082;2022-09-09T21:07:07;4.20;;;1.88;;
55989;SDS011;41875;55.806;38.082;2022-09-09T21:09:35;4.03;;;1.95;;
55989;SDS011;41875;55.806;38.082;2022-09-09T21:12:04;4.10;;;1.80;;
55989;SDS011;41875;55.806;38.082;2022-09-09T21:17:01;8.73;;;3.40;;
55989;SDS011;41875;55.806;38.082;2022-09-09T21:21:58;8.25;;;3.38;;
55989;SDS011;41875;55.806;38.082;2022-09-09T21:24:27;8.85;;;3.15;;
55989;SDS011;41875;55.806;38.082;2022-09-09T21:26:56;7.10;;;2.72;;
55989;SDS011;41875;55.806;38.082;2022-09-09T21:29:26;8.10;;;3.05;;
55989;SDS011;41875;55.806;38.082;2022-09-09T21:31:54;15.48;;;7.55;;
55989;SDS011;41875;55.806;38.082;2022-09-09T21:34:23;8.13;;;3.33;;
55989;SDS011;41875;55.806;38.082;2022-09-09T21:36:51;7.15;;;3.08;;
55989;SDS011;41875;55.806;38.082;2022-09-09T21:39:20;4.20;;;2.17;;
55989;SDS011;41875;55.806;38.082;2022-09-09T21:41:50;5.38;;;1.85;;
55989;SDS011;41875;55.806;38.082;2022-09-09T21:44:18;3.17;;;1.73;;
55989;SDS011;41875;55.806;38.082;2022-09-09T21:46:47;5.32;;;1.90;;
55989;SDS011;41875;55.806;38.082;2022-09-09T21:49:15;6.18;;;2.42;;
55989;SDS011;41875;55.806;38.082;2022-09-09T21:51:43;4.82;;;2.30;;
55989;SDS011;41875;55.806;38.082;2022-09-09T21:56:40;5.10;;;2.40;;
55989;SDS011;41875;55.806;38.082;2022-09-09T22:01:39;9.35;;;3.97;;
55989;SDS011;41875;55.806;38.082;2022-09-09T22:04:08;4.07;;;1.88;;
55989;SDS011;41875;55.806;38.082;2022-09-09T22:06:36;5.10;;;2.22;;
55989;SDS011;41875;55.806;38.082;2022-09-09T22:09:05;6.65;;;2.83;;
55989;SDS011;41875;55.806;38.082;2022-09-09T22:11:33;8.40;;;3.67;;
55989;SDS011;41875;55.806;38.082;2022-09-09T22:14:02;9.73;;;3.40;;
55989;SDS011;41875;55.806;38.082;2022-09-09T22:16:32;7.18;;;3.17;;
55989;SDS011;41875;55.806;38.082;2022-09-09T22:19:00;6.50;;;2.95;;
55989;SDS011;41875;55.806;38.082;2022-09-09T22:21:30;8.85;;;3.55;;
55989;SDS011;41875;55.806;38.082;2022-09-09T22:24:00;6.80;;;3.03;;
55989;SDS011;41875;55.806;38.082;2022-09-09T22:26:30;7.85;;;3.80;;
55989;SDS011;41875;55.806;38.082;2022-09-09T22:29:00;8.15;;;3.72;;
55989;SDS011;41875;55.806;38.082;2022-09-09T22:31:32;7.72;;;3.70;;
55989;SDS011;41875;55.806;38.082;2022-09-09T22:34:00;8.40;;;3.92;;
55989;SDS011;41875;55.806;38.082;2022-09-09T22:38:58;8.40;;;3.70;;
55989;SDS011;41875;55.806;38.082;2022-09-09T22:43:58;9.73;;;3.42;;
55989;SDS011;41875;55.806;38.082;2022-09-09T22:46:27;7.60;;;3.55;;
55989;SDS011;41875;55.806;38.082;2022-09-09T22:48:57;10.02;;;3.88;;
55989;SDS011;41875;55.806;38.082;2022-09-09T22:51:25;8.40;;;3.55;;
55989;SDS011;41875;55.806;38.082;2022-09-09T22:53:54;9.30;;;3.22;;
55989;SDS011;41875;55.806;38.082;2022-09-09T22:56:23;10.13;;;3.60;;
55989;SDS011;41875;55.806;38.082;2022-09-09T22:58:52;6.53;;;2.97;;
55989;SDS011;41875;55.806;38.082;2022-09-09T23:01:22;6.57;;;2.80;;
55989;SDS011;41875;55.806;38.082;2022-09-09T23:03:52;7.55;;;3.72;;
55989;SDS011;41875;55.806;38.082;2022-09-09T23:06:26;11.45;;;4.28;;
55989;SDS011;41875;55.806;38.082;2022-09-09T23:08:56;8.60;;;3.65;;
55989;SDS011;41875;55.806;38.082;2022-09-09T23:11:27;8.80;;;3.55;;
55989;SDS011;41875;55.806;38.082;2022-09-09T23:13:58;10.88;;;3.72;;
55989;SDS011;41875;55.806;38.082;2022-09-09T23:16:29;6.18;;;3.17;;
55989;SDS011;41875;55.806;38.082;2022-09-09T23:18:59;11.02;;;3.42;;
55989;SDS011;41875;55.806;38.082;2022-09-09T23:21:29;7.85;;;3.38;;
55989;SDS011;41875;55.806;38.082;2022-09-09T23:23:58;14.63;;;3.95;;
55989;SDS011;41875;55.806;38.082;2022-09-09T23:28:56;9.20;;;3.40;;
55989;SDS011;41875;55.806;38.082;2022-09-09T23:31:26;8.65;;;3.75;;
55989;SDS011;41875;55.806;38.082;2022-09-09T23:33:55;8.75;;;3.58;;
55989;SDS011;41875;55.806;38.082;2022-09-09T23:36:25;9.23;;;3.88;;
55989;SDS011;41875;55.806;38.082;2022-09-09T23:38:58;9.75;;;3.40;;
55989;SDS011;41875;55.806;38.082;2022-09-09T23:41:28;9.43;;;3.55;;
55989;SDS011;41875;55.806;38.082;2022-09-09T23:43:57;9.65;;;3.75;;
55989;SDS011;41875;55.806;38.082;2022-09-09T23:46:28;11.20;;;4.88;;
55989;SDS011;41875;55.806;38.082;2022-09-09T23:48:58;11.27;;;3.88;;
55989;SDS011;41875;55.806;38.082;2022-09-09T23:51:28;7.40;;;2.67;;
55989;SDS011;41875;55.806;38.082;2022-09-09T23:54:01;6.82;;;3.13;;
55989;SDS011;41875;55.806;38.082;2022-09-09T23:56:32;7.70;;;3.38;;
55989;SDS011;41875;55.806;38.082;2022-09-09T23:59:03;8.63;;;3.70;;
